153-й AP3

Карта отелей и гостиниц, располагающихся рядом с аэропортом 153-й AP3 :

153-й AP3
Артем
Приморский край 43° 23' 57.264" N, 132° 12' 16.596" E
153-й AP3
Артем
Приморский край 43° 23' 57.264" N, 132° 12' 16.596" E
Код аэродрома ИКАО: 
HHC4
Код аэродрома RU: 
ХХЦ4
Координаты: 
N43.39924° E132.20461°
Превышение над уровнем моря : 
21
Основная полоса: 
10/28
Курс магнитный: 
097,8/277,8
Длина основной ВПП: 
44
Ширина основной ВПП: 
44
Покрытие основной ВПП: 
Твёрдое
Освещение ВПП: 
Нет
Тип: 
Вертодром
Класс аэродрома: 
Принадлежность: 
ЭА
Статус: 
Действующий
Сайт: 
E-mail аэродрома: 
Страна: 
Россия
Регион: 
Приморский край
Город: 
Артем
Дополнительная информация: 
Владелец ПП: нет данных. Имеет круглую форму. Маркирована не нормативно.

Найти трансфер

С помощью этой формы Вы можете найти трансфер из аэропорта 153-й AP3 в город, аэропорт или вокзал:

Карта места

Javascript is required to view this map.

Погода в аэропортах:

Авиационная погода в Гостомеле

Регион: 
Погода METAR: 
UKKM 271030Z AUTO 11007MPS 080V150 7000 -RA SCT049/// 17/16 Q1007
Время наблюдения: 
2020-09-27T10:30:00Z
Температура C: 
17.0
Точка росы: 
16.0
Направление ветра: 
110
Скорость ветра (узлы): 
14
Метеорологическая видимость: 
4.35
Явления погоды: 
-RA
Условия полета: 
MVFR
Аэропорт подробнее: 

Авиационная погода в Ботсфьорде

Регион: 
Погода METAR: 
ENBS 251850Z 24021G31KT 9999 VCSH FEW030 09/05 Q0994
Время наблюдения: 
2020-09-25T18:50:00Z
Температура C: 
9.0
Точка росы: 
5.0
Направление ветра: 
240
Скорость ветра (узлы): 
21
Метеорологическая видимость: 
6.21
Явления погоды: 
VCSH
Условия полета: 
VFR

Авиационная погода в Бресте

Регион: 
Погода METAR: 
UMBB 270710Z 12007G10MPS 5000 BR OVC012CB 17/15 Q0998 NOSIG
Время наблюдения: 
2020-09-27T07:10:00Z
Температура C: 
17.0
Точка росы: 
15.0
Направление ветра: 
120
Скорость ветра (узлы): 
14
Метеорологическая видимость: 
3.11
Явления погоды: 
BR
Условия полета: 
MVFR
Аэропорт подробнее: 

Авиационная погода в Куопио

Регион: 
Погода METAR: 
EFKU 271020Z AUTO 09004KT 060V130 1100 R33/P2000N BR NCD 15/12 Q1022
Время наблюдения: 
2020-09-27T10:20:00Z
Температура C: 
15.0
Точка росы: 
12.0
Направление ветра: 
90
Скорость ветра (узлы): 
4
Метеорологическая видимость: 
0.68
Явления погоды: 
BR
Условия полета: 
LIFR